John Murtha Johnstown Cambria County Airport
KJST : rendu visible

Aérodrome :











RETROUVEZ-NOUS SUR...

 
LOGIN :

S'inscrire | Disclaimer

   EN    FR    IT 

 









Légende :    VFR   VFR Marginal   IFR   IFR Intensif   IFR Très Intensif
Visi : 
Plafond : 
>= 8 km
>= 3000ft
5 à 8 km
1000 à 3000 ft
1500m à 5 km
500 à 1000 ft
800 à 1500m
200 à 500 ft
< 800m
< 200 ft
Symboles :   Orages  Brouillard  Fortes neiges  Fortes précipitations  Vent > 20 kt






- Altitude de l'aérodrome : 2284 ft
- Code IATA : JST


KJST - John Murtha Johnstown Cambria County

DERNIER METAR :
  • 081220Z AUTO 27009KT 10SM BKN029 BKN037 12/08 A2963 RMK AO2 T01170083

METARs EXPIRÉS :
  • 081154Z AUTO 26009KT 10SM CLR 12/08 A2963 RMK AO2 SLP031 60060 70072 T01170083 10167 20100 53006
  • 081054Z AUTO 24010KT 10SM FEW015 11/08 A2960 RMK AO2 SLP022 T01060083
  • 080954Z AUTO 24011KT 10SM FEW075 FEW100 11/08 A2959 RMK AO2 RAB0858E40 SLP018 P0001 T01060083

TAF KJST
Valide du 08 à 12h jusqu'au 09 à 12h UTC


081129Z 0812/0912 26011KT P6SM SCT015
FM081230 26011KT P6SM BKN015
FM081330 28012G20KT P6SM OVC006
FM081630 29015G24KT P6SM BKN045
FM090000 VRB05KT P6SM SKC
FM091100 21012G22KT P6SM -SHRA BKN025 OVC050



MET'MAP, la Météo Aéronautique d'un coup d'oeil ! - Copyright ORBIFLY Décembre 2007 - Disclaimer

ORBIFLY MET'MAP TEAM :

Programmation & Développement : Alexandra Zaïnal
Sur une idée originale de : Baudouin d'Aumeries
Assistance à la programmation : Marc-Olivier Méhu
Soutien technique & logistique : Manuel Goepfert

Contact : metmap@orbifly.com




SOURCES & CREDITS :

   NOAA       Earth
Advisory